Time;durP1;ratioP1;P1;durP2;ratioP2;P2;SDS_P1;SDS_P2;PMS_P1;PMS_P2;Temp;Humidity;BMP_temperature;BMP_pressure;BME280_temperature;BME280_humidity;BME280_pressure;Samples;Min_cycle;Max_cycle;Signal;HPM_P1;HPM_P2
2022/11/25 00:00:52;;;;;;;0.93;0.93;;;6.80;99.90;;;;;;4993851;28;20007;-81
2022/11/25 00:03:18;;;;;;;0.60;0.60;;;6.90;99.90;;;;;;4988508;28;20049;-82
2022/11/25 00:05:44;;;;;;;0.95;0.95;;;6.90;99.90;;;;;;5002313;28;20521;-80
2022/11/25 00:08:09;;;;;;;0.45;0.45;;;6.80;99.90;;;;;;4989755;28;20045;-82
2022/11/25 00:10:35;;;;;;;0.60;0.60;;;6.80;99.90;;;;;;4986944;28;20053;-81
2022/11/25 00:13:01;;;;;;;0.50;0.50;;;6.80;99.90;;;;;;5024483;28;20041;-82
2022/11/25 00:15:26;;;;;;;1.88;1.77;;;6.90;99.90;;;;;;5021707;28;20399;-82
2022/11/25 00:17:52;;;;;;;0.60;0.60;;;6.90;99.90;;;;;;5010309;28;20034;-82
2022/11/25 00:20:20;;;;;;;0.40;0.40;;;6.90;99.90;;;;;;5010061;28;20056;-81
2022/11/25 00:22:45;;;;;;;0.88;0.88;;;6.90;99.90;;;;;;5006749;28;20410;-81
2022/11/25 00:25:11;;;;;;;0.52;0.52;;;6.90;99.90;;;;;;5007904;28;20067;-82
2022/11/25 00:27:37;;;;;;;1.17;1.10;;;6.90;99.90;;;;;;5019718;28;21755;-80
2022/11/25 00:30:05;;;;;;;3.97;0.75;;;7.00;99.90;;;;;;5007620;28;20041;-82
2022/11/25 00:32:31;;;;;;;0.60;0.60;;;7.00;99.90;;;;;;5009300;28;20037;-81
2022/11/25 00:34:57;;;;;;;0.77;0.77;;;7.00;99.90;;;;;;5010305;28;20052;-81
2022/11/25 00:37:22;;;;;;;0.52;0.52;;;7.00;99.90;;;;;;5018529;28;20042;-81
2022/11/25 00:39:48;;;;;;;1.75;1.67;;;7.00;99.90;;;;;;5020135;28;20136;-82
2022/11/25 00:44:59;;;;;;;0.60;0.60;;;6.60;99.90;;;;;;4993993;28;20620;-79
2022/11/25 00:47:25;;;;;;;0.65;0.65;;;7.10;99.90;;;;;;5018637;28;20045;-80
2022/11/25 00:49:53;;;;;;;0.70;0.70;;;7.10;99.90;;;;;;5009165;28;20478;-79
2022/11/25 00:52:24;;;;;;;0.60;0.60;;;7.10;99.90;;;;;;5006787;28;20151;-80
2022/11/25 00:54:51;;;;;;;0.40;0.40;;;7.20;99.90;;;;;;5009248;28;20031;-82
2022/11/25 00:57:20;;;;;;;0.50;0.50;;;7.20;99.90;;;;;;5007873;28;20095;-80
2022/11/25 00:59:46;;;;;;;0.60;0.60;;;7.20;99.90;;;;;;5007566;28;20041;-82
2022/11/25 01:02:13;;;;;;;0.50;0.50;;;7.20;99.90;;;;;;5025428;28;20041;-81
2022/11/25 01:04:39;;;;;;;0.50;0.50;;;7.30;99.90;;;;;;5008753;28;20049;-82
2022/11/25 01:07:05;;;;;;;0.50;0.50;;;7.20;99.90;;;;;;4990191;28;20077;-79
2022/11/25 01:09:31;;;;;;;9.73;1.58;;;7.20;99.90;;;;;;5009070;28;20079;-80
2022/11/25 01:11:58;;;;;;;0.75;0.75;;;7.20;99.90;;;;;;4983916;28;20046;-81
2022/11/25 01:14:24;;;;;;;0.40;0.40;;;7.20;99.90;;;;;;5000343;28;20811;-80
2022/11/25 01:16:50;;;;;;;;;;;7.20;99.90;;;;;;4999015;28;20049;-79
2022/11/25 01:19:17;;;;;;;0.50;0.50;;;7.20;99.90;;;;;;4999704;28;20390;-80
2022/11/25 01:21:42;;;;;;;2.45;2.25;;;7.30;99.90;;;;;;4997969;28;20041;-79
2022/11/25 01:24:12;;;;;;;1.70;1.65;;;7.30;99.90;;;;;;5000093;28;20513;-81
2022/11/25 01:26:39;;;;;;;0.70;0.70;;;7.20;99.90;;;;;;5017440;28;21712;-81
2022/11/25 01:29:14;;;;;;;0.50;0.50;;;7.30;99.90;;;;;;4999389;28;20049;-81
2022/11/25 01:31:40;;;;;;;1.40;0.85;;;7.30;99.90;;;;;;4998050;28;20065;-80
2022/11/25 01:34:15;;;;;;;0.60;0.60;;;7.30;99.90;;;;;;4999900;28;20123;-81
2022/11/25 01:36:42;;;;;;;0.60;0.60;;;7.20;99.90;;;;;;5015180;28;20048;-81
2022/11/25 01:39:20;;;;;;;0.50;0.50;;;7.20;99.90;;;;;;5015135;28;20038;-80
2022/11/25 01:41:47;;;;;;;0.50;0.50;;;7.10;99.90;;;;;;4998839;28;20049;-82
2022/11/25 01:44:19;;;;;;;0.60;0.60;;;7.10;99.90;;;;;;4999652;28;20068;-82
2022/11/25 01:47:02;;;;;;;0.50;0.50;;;7.00;99.90;;;;;;4999483;28;20046;-83
2022/11/25 01:49:51;;;;;;;0.60;0.60;;;7.00;99.90;;;;;;4983974;28;20076;-82
2022/11/25 01:52:29;;;;;;;0.50;0.50;;;6.90;99.90;;;;;;4999896;28;20041;-81
2022/11/25 01:55:09;;;;;;;0.50;0.50;;;6.90;99.90;;;;;;5001423;28;20132;-81
2022/11/25 01:57:40;;;;;;;0.50;0.50;;;6.90;99.90;;;;;;4994490;28;20049;-80
2022/11/25 02:00:07;;;;;;;0.77;0.77;;;7.00;99.90;;;;;;4997597;28;20069;-81
2022/11/25 02:02:33;;;;;;;0.50;0.50;;;6.90;99.90;;;;;;5014141;28;20073;-80
2022/11/25 02:05:02;;;;;;;0.40;0.40;;;7.10;99.90;;;;;;4985431;28;20066;-81
2022/11/25 02:07:35;;;;;;;1.55;1.38;;;6.90;99.90;;;;;;4999713;28;20052;-80
2022/11/25 02:10:03;;;;;;;0.50;0.50;;;7.00;99.90;;;;;;4997552;28;20046;-80
2022/11/25 02:12:30;;;;;;;0.95;0.93;;;7.10;99.90;;;;;;5000423;28;20058;-79
2022/11/25 02:14:55;;;;;;;;;;;7.10;99.90;;;;;;4996049;28;20058;-81
2022/11/25 02:17:21;;;;;;;1.25;0.70;;;7.20;99.90;;;;;;4979157;28;19925;-81
2022/11/25 02:20:03;;;;;;;0.55;0.55;;;7.20;99.90;;;;;;4996509;28;20466;-81
2022/11/25 02:22:53;;;;;;;0.60;0.60;;;7.20;99.90;;;;;;4993452;28;20092;-82
2022/11/25 02:25:31;;;;;;;0.65;0.65;;;7.20;99.90;;;;;;4990266;28;21980;-80
2022/11/25 02:28:11;;;;;;;0.45;0.45;;;6.80;99.90;;;;;;4992453;28;20136;-80
2022/11/25 02:30:37;;;;;;;0.60;0.60;;;8.10;99.90;;;;;;4994486;28;20172;-81
2022/11/25 02:33:02;;;;;;;0.50;0.50;;;7.20;99.90;;;;;;4997534;28;20117;-80
2022/11/25 02:35:37;;;;;;;0.40;0.40;;;7.20;99.90;;;;;;4994262;28;20057;-82
2022/11/25 02:38:21;;;;;;;0.70;0.70;;;7.10;99.90;;;;;;4994198;28;20177;-81
2022/11/25 02:40:51;;;;;;;0.50;0.50;;;7.10;99.90;;;;;;4996861;28;20348;-81
2022/11/25 02:43:18;;;;;;;0.50;0.50;;;7.20;99.90;;;;;;4995035;28;20050;-82
2022/11/25 02:45:53;;;;;;;0.50;0.50;;;7.10;99.90;;;;;;4993490;28;20042;-82
2022/11/25 02:48:19;;;;;;;0.50;0.50;;;7.10;99.90;;;;;;4992270;28;20065;-82
2022/11/25 02:50:45;;;;;;;0.50;0.50;;;7.10;99.90;;;;;;5000086;28;20076;-82
2022/11/25 02:53:10;;;;;;;0.70;0.70;;;7.10;99.90;;;;;;4993022;28;20185;-81
2022/11/25 02:55:36;;;;;;;1.00;1.00;;;7.10;99.90;;;;;;4992548;28;20042;-81
2022/11/25 02:58:02;;;;;;;0.40;0.40;;;7.00;99.90;;;;;;4990508;28;20049;-80
2022/11/25 03:00:28;;;;;;;0.50;0.50;;;7.20;99.90;;;;;;4996016;28;20050;-81
2022/11/25 03:02:53;;;;;;;0.52;0.52;;;7.00;99.90;;;;;;4979720;28;20111;-82
2022/11/25 03:05:21;;;;;;;0.57;0.57;;;7.00;99.90;;;;;;4992671;28;20038;-81
2022/11/25 03:07:47;;;;;;;0.60;0.60;;;7.10;99.90;;;;;;4994647;28;20045;-82
2022/11/25 03:10:12;;;;;;;0.60;0.57;;;7.10;99.90;;;;;;4978836;28;20070;-82
2022/11/25 03:12:38;;;;;;;0.60;0.60;;;7.10;99.90;;;;;;4940386;28;1116344;-81
2022/11/25 03:15:10;;;;;;;0.60;0.60;;;7.10;99.90;;;;;;5009899;28;20144;-81
2022/11/25 03:17:35;;;;;;;0.40;0.40;;;7.10;99.90;;;;;;4961626;28;20046;-82
2022/11/25 03:20:01;;;;;;;2.20;0.68;;;7.40;99.90;;;;;;4991968;28;20139;-82
2022/11/25 03:22:27;;;;;;;;;;;7.10;99.90;;;;;;4989466;28;20042;-81
2022/11/25 03:24:53;;;;;;;0.60;0.60;;;7.20;99.90;;;;;;4995040;28;19925;-81
2022/11/25 03:27:21;;;;;;;0.63;0.63;;;7.20;99.90;;;;;;4992554;28;20042;-81
2022/11/25 03:29:48;;;;;;;0.60;0.60;;;7.20;99.90;;;;;;4990956;28;20046;-82
2022/11/25 03:32:14;;;;;;;0.57;0.57;;;7.30;99.90;;;;;;4990223;28;20116;-81
2022/11/25 03:34:39;;;;;;;0.73;0.73;;;7.30;99.90;;;;;;4993565;28;21073;-83
2022/11/25 03:37:05;;;;;;;0.45;0.45;;;7.30;99.90;;;;;;4996479;28;20052;-82
2022/11/25 03:39:31;;;;;;;0.95;0.95;;;7.30;99.90;;;;;;4994005;28;20139;-82
2022/11/25 03:41:57;;;;;;;1.88;1.77;;;7.30;99.90;;;;;;4994040;28;20581;-82
2022/11/25 03:44:23;;;;;;;0.60;0.60;;;7.30;99.90;;;;;;4994775;28;20050;-83
2022/11/25 03:46:48;;;;;;;1.48;1.48;;;7.30;99.90;;;;;;4978429;28;20050;-85
2022/11/25 03:49:14;;;;;;;5.50;1.27;;;7.30;99.90;;;;;;4979078;28;20066;-82
2022/11/25 03:51:40;;;;;;;0.50;0.50;;;7.40;99.90;;;;;;4979340;28;20043;-82
2022/11/25 03:54:05;;;;;;;0.68;0.68;;;7.40;99.90;;;;;;4993717;28;20042;-81
2022/11/25 03:56:32;;;;;;;1.13;1.02;;;7.40;99.90;;;;;;4994599;28;20046;-80
2022/11/25 03:58:57;;;;;;;;;;;7.40;99.90;;;;;;4994701;28;20052;-82
2022/11/25 04:01:23;;;;;;;1.98;1.90;;;7.40;99.90;;;;;;4977624;28;19917;-82
2022/11/25 04:03:49;;;;;;;0.60;0.60;;;7.40;99.90;;;;;;4994544;28;20045;-82
2022/11/25 04:06:15;;;;;;;0.50;0.50;;;7.40;99.90;;;;;;4979741;28;20151;-83
2022/11/25 04:08:42;;;;;;;0.60;0.60;;;7.40;99.90;;;;;;4965684;28;20100;-82
2022/11/25 04:11:08;;;;;;;0.50;0.50;;;7.40;99.90;;;;;;4977436;28;20114;-83
2022/11/25 04:13:34;;;;;;;0.60;0.60;;;7.40;99.90;;;;;;4996052;28;20124;-81
2022/11/25 04:15:59;;;;;;;0.60;0.60;;;7.40;99.90;;;;;;4981286;28;21846;-83
2022/11/25 04:18:25;;;;;;;0.50;0.50;;;7.50;99.90;;;;;;4998673;28;20096;-83
2022/11/25 04:20:51;;;;;;;1.13;0.82;;;7.50;99.90;;;;;;4982460;28;20049;-81
2022/11/25 04:23:17;;;;;;;;;;;7.40;99.90;;;;;;4996606;28;20646;-81
2022/11/25 04:25:42;;;;;;;0.45;0.45;;;7.60;99.90;;;;;;4997347;28;19929;-82
2022/11/25 04:28:08;;;;;;;0.43;0.43;;;7.40;99.90;;;;;;4995329;28;20100;-82
2022/11/25 04:30:34;;;;;;;0.57;0.57;;;7.40;99.90;;;;;;4964610;28;20072;-82
2022/11/25 04:33:00;;;;;;;0.60;0.60;;;7.40;99.90;;;;;;5000097;28;20049;-82
2022/11/25 04:35:26;;;;;;;0.50;0.50;;;7.40;99.90;;;;;;5003150;28;20045;-82
2022/11/25 04:37:52;;;;;;;0.45;0.45;;;7.70;99.90;;;;;;5004775;28;20049;-84
2022/11/25 04:40:18;;;;;;;1.20;1.10;;;8.00;99.90;;;;;;4989845;28;20881;-83
2022/11/25 04:42:44;;;;;;;0.47;0.47;;;7.50;99.90;;;;;;5017507;28;21839;-83
2022/11/25 04:45:16;;;;;;;0.50;0.50;;;7.50;99.90;;;;;;5007805;28;20055;-84
2022/11/25 04:47:42;;;;;;;0.82;0.73;;;7.50;99.90;;;;;;5012999;28;20065;-83
2022/11/25 04:50:15;;;;;;;1.05;0.98;;;7.50;99.90;;;;;;5024472;28;20186;-84
2022/11/25 04:52:42;;;;;;;0.95;0.95;;;7.40;99.90;;;;;;5004593;28;20081;-82
2022/11/25 04:55:08;;;;;;;0.52;0.52;;;7.50;99.90;;;;;;5002568;28;20077;-83
2022/11/25 04:57:33;;;;;;;;;;;7.50;99.90;;;;;;5014661;28;20037;-82
2022/11/25 04:59:59;;;;;;;0.57;0.57;;;7.40;99.90;;;;;;4997006;28;19925;-84
2022/11/25 05:02:27;;;;;;;0.70;0.70;;;7.50;99.90;;;;;;4995733;28;20045;-83
2022/11/25 05:04:54;;;;;;;0.60;0.60;;;7.50;99.90;;;;;;4996291;28;20052;-83
2022/11/25 05:07:21;;;;;;;0.57;0.57;;;7.40;99.90;;;;;;5009788;28;20145;-83
2022/11/25 05:09:48;;;;;;;0.55;0.55;;;7.40;99.90;;;;;;4994798;28;20413;-82
2022/11/25 05:12:17;;;;;;;0.65;0.65;;;7.50;99.90;;;;;;5015153;28;20057;-82
2022/11/25 05:14:43;;;;;;;0.70;0.70;;;7.50;99.90;;;;;;4980938;28;20132;-82
2022/11/25 05:17:14;;;;;;;0.40;0.40;;;7.50;99.90;;;;;;4997001;28;20048;-82
2022/11/25 05:19:41;;;;;;;0.50;0.50;;;7.50;99.90;;;;;;4985693;28;20049;-83
2022/11/25 05:22:12;;;;;;;0.50;0.50;;;7.50;99.90;;;;;;4981518;28;20049;-82
2022/11/25 05:24:37;;;;;;;0.50;0.50;;;8.20;99.90;;;;;;4998383;28;20060;-81
2022/11/25 05:27:04;;;;;;;0.60;0.60;;;7.50;99.90;;;;;;5005426;28;20077;-81
2022/11/25 05:29:30;;;;;;;;;;;7.40;99.90;;;;;;5014772;28;20048;-81
2022/11/25 05:31:57;;;;;;;0.60;0.60;;;7.40;99.90;;;;;;4987133;28;19921;-81
2022/11/25 05:34:23;;;;;;;0.60;0.60;;;7.40;99.90;;;;;;4997042;28;20052;-81
2022/11/25 05:36:50;;;;;;;0.60;0.60;;;7.40;99.90;;;;;;5008302;28;20083;-81
2022/11/25 05:39:18;;;;;;;0.50;0.50;;;7.40;99.90;;;;;;4996153;28;20149;-82
2022/11/25 05:41:44;;;;;;;0.55;0.55;;;7.40;99.90;;;;;;4993984;28;21091;-82
2022/11/25 05:44:09;;;;;;;0.40;0.40;;;7.40;99.90;;;;;;4995090;28;20061;-82
2022/11/25 05:46:35;;;;;;;0.55;0.55;;;7.40;99.90;;;;;;4992934;28;20431;-81
2022/11/25 05:49:01;;;;;;;0.40;0.40;;;7.40;99.90;;;;;;4992619;28;20099;-80
2022/11/25 05:51:27;;;;;;;0.75;0.73;;;7.40;99.90;;;;;;4981898;28;20041;-82
2022/11/25 05:53:53;;;;;;;;;;;7.40;99.90;;;;;;5000629;28;20049;-82
2022/11/25 05:56:18;;;;;;;1.30;1.23;;;8.00;99.90;;;;;;4999070;28;19925;-82
2022/11/25 05:58:44;;;;;;;0.70;0.70;;;7.40;99.90;;;;;;4999376;28;21509;-81
2022/11/25 06:01:11;;;;;;;0.60;0.60;;;7.50;99.90;;;;;;4985584;28;20045;-83
2022/11/25 06:03:38;;;;;;;0.50;0.50;;;7.50;99.90;;;;;;4978315;28;20166;-81
2022/11/25 06:06:05;;;;;;;0.73;0.73;;;7.50;99.90;;;;;;4993781;28;20045;-83
2022/11/25 06:08:31;;;;;;;0.73;0.73;;;7.50;99.90;;;;;;4986642;28;20045;-83
2022/11/25 06:10:56;;;;;;;;;;;7.50;99.90;;;;;;4997958;28;20132;-82
2022/11/25 06:13:22;;;;;;;0.57;0.57;;;7.50;99.90;;;;;;4996307;28;20492;-82
2022/11/25 06:15:48;;;;;;;0.60;0.60;;;7.50;99.90;;;;;;5002501;28;20104;-85
2022/11/25 06:18:16;;;;;;;0.52;0.52;;;7.60;99.90;;;;;;4986553;28;20053;-85
2022/11/25 06:20:56;;;;;;;2.08;1.98;;;7.60;99.90;;;;;;5006564;28;20038;-84
2022/11/25 06:23:22;;;;;;;0.70;0.70;;;7.60;99.90;;;;;;4986808;28;20085;-85
2022/11/25 06:25:47;;;;;;;0.70;0.70;;;7.60;99.90;;;;;;4971360;28;20038;-84
2022/11/25 06:28:13;;;;;;;1.38;1.38;;;7.60;99.90;;;;;;4989522;28;20100;-83
2022/11/25 06:30:39;;;;;;;1.00;1.00;;;7.60;99.90;;;;;;5001607;28;20471;-81
2022/11/25 06:33:04;;;;;;;0.82;0.82;;;7.60;99.90;;;;;;5004225;28;20483;-83
2022/11/25 06:35:30;;;;;;;1.15;1.15;;;7.70;99.90;;;;;;4986692;28;20045;-82
2022/11/25 06:37:58;;;;;;;1.55;1.30;;;7.60;99.90;;;;;;5011854;28;20081;-83
2022/11/25 06:40:23;;;;;;;0.60;0.60;;;8.00;99.90;;;;;;5010039;28;20100;-83
2022/11/25 06:42:49;;;;;;;0.52;0.52;;;7.70;99.90;;;;;;5002378;28;20053;-83
2022/11/25 06:45:15;;;;;;;0.60;0.60;;;7.70;99.90;;;;;;5003214;28;21300;-82
2022/11/25 06:47:42;;;;;;;0.60;0.60;;;7.60;99.90;;;;;;5022934;28;20045;-82
2022/11/25 06:50:08;;;;;;;0.65;0.65;;;7.70;99.90;;;;;;4991136;28;20046;-82
2022/11/25 06:52:34;;;;;;;1.00;1.00;;;7.70;99.90;;;;;;5008116;28;20046;-83
2022/11/25 06:54:59;;;;;;;0.60;0.60;;;7.70;99.90;;;;;;5009153;28;20040;-82
2022/11/25 06:57:25;;;;;;;0.55;0.55;;;7.70;99.90;;;;;;4991510;28;20073;-83
2022/11/25 06:59:51;;;;;;;1.17;1.17;;;7.70;99.90;;;;;;5023401;28;20072;-82
2022/11/25 07:02:17;;;;;;;0.50;0.50;;;7.70;99.90;;;;;;5026797;28;20123;-82
2022/11/25 07:04:43;;;;;;;0.52;0.52;;;7.70;99.90;;;;;;5008454;28;20048;-81
2022/11/25 07:07:09;;;;;;;0.57;0.57;;;7.80;99.90;;;;;;5007580;28;20073;-82
2022/11/25 07:09:35;;;;;;;0.50;0.50;;;7.80;99.90;;;;;;4990133;28;20479;-83
2022/11/25 07:12:01;;;;;;;0.50;0.50;;;7.70;99.90;;;;;;5008371;28;20065;-83
2022/11/25 07:14:27;;;;;;;;;;;7.70;99.90;;;;;;4990465;28;20038;-82
2022/11/25 07:16:52;;;;;;;0.60;0.60;;;7.70;99.90;;;;;;5008118;28;20315;-83
2022/11/25 07:19:18;;;;;;;0.52;0.52;;;7.80;99.90;;;;;;5007324;28;20089;-82
2022/11/25 07:21:44;;;;;;;1.10;1.10;;;7.80;99.90;;;;;;5006745;28;20147;-83
2022/11/25 07:24:13;;;;;;;0.50;0.50;;;7.80;99.90;;;;;;5007197;28;20125;-82
2022/11/25 07:26:41;;;;;;;0.73;0.73;;;7.80;99.90;;;;;;5006297;28;20046;-82
2022/11/25 07:29:09;;;;;;;0.40;0.40;;;7.90;99.90;;;;;;5006466;28;20038;-82
2022/11/25 07:31:38;;;;;;;0.55;0.55;;;7.90;99.90;;;;;;5006702;28;20069;-83
2022/11/25 07:34:08;;;;;;;0.52;0.52;;;8.00;99.90;;;;;;5004386;28;20137;-82
2022/11/25 07:36:35;;;;;;;1.52;1.52;;;7.90;99.90;;;;;;5003034;28;20932;-82
2022/11/25 07:39:04;;;;;;;0.57;0.57;;;7.90;99.90;;;;;;5025593;28;20041;-82
2022/11/25 07:41:30;;;;;;;1.02;1.02;;;7.90;99.90;;;;;;5019527;28;20030;-84
2022/11/25 07:44:01;;;;;;;1.15;1.15;;;7.90;99.90;;;;;;5011914;28;20761;-81
2022/11/25 07:46:38;;;;;;;0.57;0.57;;;7.90;99.90;;;;;;4990448;28;20041;-82
2022/11/25 07:49:10;;;;;;;0.60;0.60;;;7.90;99.90;;;;;;5010159;28;20547;-83
2022/11/25 07:51:38;;;;;;;0.55;0.55;;;7.90;99.90;;;;;;5018197;28;20045;-83
2022/11/25 07:54:07;;;;;;;0.52;0.52;;;7.90;99.90;;;;;;5007217;28;20038;-82
2022/11/25 07:56:34;;;;;;;0.50;0.50;;;7.90;99.90;;;;;;5016613;28;20080;-83
2022/11/25 07:59:00;;;;;;;0.68;0.68;;;7.90;99.90;;;;;;4997295;28;20050;-83
2022/11/25 08:01:27;;;;;;;0.50;0.50;;;8.00;99.90;;;;;;5008386;28;20053;-83
2022/11/25 08:03:53;;;;;;;0.60;0.60;;;8.00;99.90;;;;;;5000694;28;20759;-83
2022/11/25 08:06:26;;;;;;;;;;;8.10;99.90;;;;;;5005834;28;20080;-83
2022/11/25 08:08:54;;;;;;;0.50;0.50;;;8.10;99.90;;;;;;5008509;28;19928;-84
2022/11/25 08:11:32;;;;;;;1.17;1.17;;;8.10;99.90;;;;;;4995016;28;20057;-85
2022/11/25 08:13:58;;;;;;;0.50;0.50;;;8.00;99.90;;;;;;5009846;28;20145;-83
2022/11/25 08:16:25;;;;;;;;;;;8.00;99.90;;;;;;5009473;28;20116;-84
2022/11/25 08:18:53;;;;;;;0.60;0.60;;;7.90;99.90;;;;;;5022364;28;19921;-85
2022/11/25 08:21:19;;;;;;;0.50;0.50;;;7.80;99.90;;;;;;5009028;28;20041;-84
2022/11/25 08:23:51;;;;;;;0.50;0.50;;;7.80;99.90;;;;;;4981936;28;20048;-86
2022/11/25 08:26:29;;;;;;;1.08;0.70;;;7.70;99.90;;;;;;5010048;28;20168;-84
2022/11/25 08:28:56;;;;;;;0.47;0.47;;;7.70;99.90;;;;;;5011014;28;20108;-83
2022/11/25 08:31:28;;;;;;;0.68;0.68;;;7.60;99.90;;;;;;5012502;28;20718;-84
2022/11/25 08:33:54;;;;;;;0.82;0.82;;;7.70;99.90;;;;;;5013792;28;20482;-84
2022/11/25 08:36:21;;;;;;;0.47;0.47;;;7.70;99.90;;;;;;5012386;28;20399;-84
2022/11/25 08:38:49;;;;;;;0.60;0.60;;;8.30;99.90;;;;;;5014642;28;20072;-85
2022/11/25 08:41:21;;;;;;;0.40;0.40;;;7.60;99.90;;;;;;4996917;28;20054;-84
2022/11/25 08:43:47;;;;;;;0.50;0.50;;;7.60;99.90;;;;;;5007656;28;20101;-84
2022/11/25 08:46:17;;;;;;;0.77;0.77;;;7.70;99.90;;;;;;5008385;28;20116;-84
2022/11/25 08:48:43;;;;;;;0.43;0.43;;;7.70;99.90;;;;;;5006820;28;20042;-84
2022/11/25 08:51:18;;;;;;;0.52;0.52;;;7.70;99.90;;;;;;5008975;28;20037;-84
2022/11/25 08:53:44;;;;;;;0.40;0.40;;;7.70;99.90;;;;;;5004804;28;20172;-84
2022/11/25 08:56:10;;;;;;;0.32;0.32;;;7.80;99.90;;;;;;5007285;28;20049;-83
2022/11/25 08:58:36;;;;;;;1.33;1.33;;;7.70;99.90;;;;;;5007192;28;20377;-84
2022/11/25 09:01:03;;;;;;;0.60;0.60;;;7.80;99.90;;;;;;5005006;28;20049;-84
2022/11/25 09:03:35;;;;;;;0.65;0.65;;;7.80;99.90;;;;;;4999923;28;20568;-85
2022/11/25 09:06:01;;;;;;;0.50;0.50;;;7.80;99.90;;;;;;4998484;28;20535;-83
2022/11/25 09:08:27;;;;;;;0.50;0.50;;;7.80;99.90;;;;;;5002259;28;20106;-83
2022/11/25 09:10:53;;;;;;;0.50;0.50;;;7.90;99.90;;;;;;4999775;28;20046;-82
2022/11/25 09:13:18;;;;;;;0.40;0.40;;;7.90;99.90;;;;;;4998739;28;20064;-83
2022/11/25 09:15:45;;;;;;;4.97;1.77;;;7.90;99.90;;;;;;5000581;28;20050;-84
2022/11/25 09:18:10;;;;;;;0.95;0.95;;;7.90;99.90;;;;;;5013724;28;20030;-84
2022/11/25 09:20:39;;;;;;;0.60;0.60;;;8.00;99.90;;;;;;5015455;28;20439;-83
2022/11/25 09:23:06;;;;;;;0.45;0.45;;;8.00;99.90;;;;;;5002047;28;20041;-84
2022/11/25 09:25:32;;;;;;;0.50;0.50;;;8.00;99.90;;;;;;4996217;28;20045;-84
2022/11/25 09:27:58;;;;;;;0.50;0.50;;;8.00;99.90;;;;;;5007843;28;20060;-83
2022/11/25 09:30:30;;;;;;;0.43;0.43;;;8.00;99.90;;;;;;4999798;28;20132;-82
2022/11/25 09:32:55;;;;;;;0.50;0.50;;;8.10;99.90;;;;;;5006859;28;20038;-83
2022/11/25 09:35:23;;;;;;;0.50;0.50;;;8.10;99.90;;;;;;5007324;28;20038;-84
2022/11/25 09:37:49;;;;;;;0.60;0.60;;;8.10;99.90;;;;;;5007734;28;20045;-84
2022/11/25 09:40:40;;;;;;;0.50;0.50;;;8.20;99.90;;;;;;5006811;28;20045;-83
2022/11/25 09:46:47;;;;;;;0.47;0.47;;;8.20;99.90;;;;;;5010951;28;20046;-85
2022/11/25 09:49:37;;;;;;;0.60;0.60;;;8.30;99.90;;;;;;4998479;28;20056;-83
2022/11/25 09:52:24;;;;;;;0.50;0.50;;;8.30;99.90;;;;;;5007728;28;20034;-84
2022/11/25 09:55:04;;;;;;;0.75;0.75;;;8.40;99.90;;;;;;5006467;28;20121;-84
2022/11/25 09:57:46;;;;;;;0.68;0.68;;;8.50;99.90;;;;;;5003322;28;20042;-83
2022/11/25 10:00:17;;;;;;;0.40;0.40;;;8.50;99.90;;;;;;5005896;28;20088;-84
2022/11/25 10:02:49;;;;;;;0.60;0.60;;;8.60;99.90;;;;;;5004064;28;20049;-85
2022/11/25 10:05:20;;;;;;;0.82;0.82;;;8.60;99.90;;;;;;5007054;28;20049;-83
2022/11/25 10:07:51;;;;;;;0.57;0.57;;;8.70;99.90;;;;;;5027217;28;20034;-83
2022/11/25 10:10:24;;;;;;;0.28;0.28;;;8.80;99.90;;;;;;5028255;28;20046;-85
2022/11/25 10:12:52;;;;;;;0.50;0.50;;;8.80;99.90;;;;;;5029057;28;20048;-83
2022/11/25 10:15:33;;;;;;;0.77;0.77;;;8.80;99.90;;;;;;5020858;28;20053;-85
2022/11/25 10:18:25;;;;;;;0.50;0.50;;;8.90;99.90;;;;;;5016269;28;20029;-85
2022/11/25 10:20:52;;;;;;;0.40;0.40;;;8.90;99.90;;;;;;5006764;28;20046;-85
2022/11/25 10:23:26;;;;;;;0.40;0.40;;;9.00;99.90;;;;;;4997795;28;20050;-84
2022/11/25 10:25:59;;;;;;;0.60;0.60;;;9.00;99.90;;;;;;5028781;28;20057;-83
2022/11/25 10:28:31;;;;;;;0.40;0.40;;;9.10;99.90;;;;;;5011820;28;20731;-83
2022/11/25 10:31:03;;;;;;;0.50;0.50;;;9.10;99.90;;;;;;4973659;28;20100;-82
2022/11/25 10:33:49;;;;;;;0.40;0.40;;;9.10;99.90;;;;;;5001101;28;20070;-82
2022/11/25 10:36:35;;;;;;;0.40;0.40;;;9.20;99.90;;;;;;5006499;28;20037;-82
2022/11/25 10:39:26;;;;;;;0.47;0.47;;;9.30;99.90;;;;;;5024378;28;20041;-82
2022/11/25 10:42:19;;;;;;;0.40;0.40;;;9.30;99.90;;;;;;5019548;28;20439;-82
2022/11/25 10:44:45;;;;;;;1.02;0.95;;;9.30;99.90;;;;;;5001957;28;20037;-83
2022/11/25 10:47:43;;;;;;;0.52;0.52;;;9.40;99.90;;;;;;5002433;28;20040;-83
2022/11/25 10:50:12;;;;;;;0.65;0.65;;;9.40;99.90;;;;;;5021083;28;20042;-83
2022/11/25 10:53:03;;;;;;;0.75;0.75;;;9.40;99.90;;;;;;5004924;28;20119;-82
2022/11/25 10:55:31;;;;;;;0.50;0.50;;;9.50;99.90;;;;;;5020889;28;20037;-82
2022/11/25 10:57:58;;;;;;;0.50;0.50;;;9.50;99.90;;;;;;5027033;28;20037;-83
2022/11/25 11:00:24;;;;;;;0.40;0.40;;;9.60;99.90;;;;;;5016217;28;20116;-81
2022/11/25 11:02:50;;;;;;;0.40;0.40;;;9.60;99.90;;;;;;5014017;28;20176;-82
2022/11/25 11:05:22;;;;;;;0.50;0.50;;;9.60;99.90;;;;;;5010463;28;20045;-82
2022/11/25 11:08:05;;;;;;;0.60;0.60;;;9.60;99.90;;;;;;5020699;28;20083;-79
2022/11/25 11:10:31;;;;;;;0.75;0.75;;;9.60;99.90;;;;;;5033462;28;20053;-82
2022/11/25 11:12:59;;;;;;;0.50;0.50;;;9.60;99.90;;;;;;5009306;28;20053;-81
2022/11/25 11:15:45;;;;;;;1.00;1.00;;;9.60;99.90;;;;;;5012063;28;20111;-82
2022/11/25 11:18:23;;;;;;;0.40;0.40;;;9.70;99.90;;;;;;5024441;28;20586;-82
2022/11/25 11:20:52;;;;;;;0.60;0.60;;;9.80;99.90;;;;;;5008605;28;20045;-82
2022/11/25 11:23:18;;;;;;;2.80;0.90;;;9.80;99.90;;;;;;5007109;28;20191;-83
2022/11/25 11:26:08;;;;;;;0.50;0.50;;;9.90;99.90;;;;;;4983568;28;20836;-83
2022/11/25 11:28:35;;;;;;;0.40;0.40;;;10.10;99.90;;;;;;4992991;28;21235;-83
2022/11/25 11:31:06;;;;;;;0.38;0.38;;;10.20;99.90;;;;;;5004392;28;21726;-81
2022/11/25 11:33:47;;;;;;;0.50;0.50;;;10.20;99.90;;;;;;5020244;28;20084;-82
2022/11/25 11:36:33;;;;;;;0.45;0.45;;;10.30;99.90;;;;;;5007059;28;20042;-82
2022/11/25 11:39:20;;;;;;;0.50;0.50;;;10.30;99.90;;;;;;5009152;28;20114;-83
2022/11/25 11:41:54;;;;;;;0.55;0.55;;;10.20;99.90;;;;;;5007954;28;20041;-83
2022/11/25 11:44:49;;;;;;;0.32;0.32;;;10.20;99.90;;;;;;5006498;28;20124;-83
2022/11/25 11:47:52;;;;;;;0.82;0.82;;;10.10;99.90;;;;;;5010562;28;20515;-83
2022/11/25 11:50:41;;;;;;;0.77;0.77;;;10.10;99.90;;;;;;5008767;28;20055;-84
2022/11/25 11:53:32;;;;;;;0.50;0.50;;;10.10;99.90;;;;;;5005390;28;20561;-84
2022/11/25 11:56:27;;;;;;;0.50;0.50;;;10.20;99.90;;;;;;5008281;28;20041;-83
2022/11/25 11:59:04;;;;;;;0.60;0.60;;;10.20;99.90;;;;;;4974441;28;20559;-83
2022/11/25 12:02:01;;;;;;;0.98;0.90;;;10.30;99.90;;;;;;5020800;28;20056;-83
2022/11/25 12:04:40;;;;;;;0.32;0.32;;;10.30;99.90;;;;;;4998545;28;20045;-83
2022/11/25 12:07:33;;;;;;;0.90;0.90;;;10.40;99.90;;;;;;5025675;28;20076;-82
2022/11/25 12:10:05;;;;;;;0.40;0.40;;;10.30;99.90;;;;;;5005741;28;20045;-82
2022/11/25 12:12:49;;;;;;;1.42;1.40;;;10.30;99.90;;;;;;4988049;28;20859;-82
2022/11/25 12:15:28;;;;;;;0.35;0.35;;;10.30;99.90;;;;;;5022189;28;20107;-82
2022/11/25 12:17:59;;;;;;;0.50;0.50;;;10.40;99.90;;;;;;5004151;28;20048;-82
2022/11/25 12:21:04;;;;;;;0.65;0.63;;;10.40;99.90;;;;;;4988513;28;20052;-82
2022/11/25 12:23:34;;;;;;;0.50;0.50;;;10.50;99.90;;;;;;5006809;28;20116;-83
2022/11/25 12:26:22;;;;;;;0.70;0.70;;;10.60;99.90;;;;;;5017179;28;20049;-83
2022/11/25 12:28:56;;;;;;;0.60;0.60;;;10.60;99.90;;;;;;5006850;28;20045;-83
2022/11/25 12:31:29;;;;;;;0.52;0.52;;;10.60;99.90;;;;;;5014451;28;20092;-83
2022/11/25 12:33:54;;;;;;;0.43;0.43;;;10.60;99.90;;;;;;5010191;28;20069;-82
2022/11/25 12:36:44;;;;;;;0.50;0.50;;;10.50;99.90;;;;;;5010546;28;20077;-84
2022/11/25 12:39:28;;;;;;;0.50;0.50;;;10.60;99.90;;;;;;5007871;28;20041;-82
2022/11/25 12:42:01;;;;;;;5.20;0.68;;;10.60;99.90;;;;;;5007613;28;20041;-82
2022/11/25 12:44:44;;;;;;;0.60;0.60;;;10.50;99.90;;;;;;5021742;28;20163;-83
2022/11/25 12:47:10;;;;;;;0.40;0.40;;;10.50;99.90;;;;;;5002614;28;20363;-83
2022/11/25 12:49:46;;;;;;;0.50;0.50;;;10.60;99.90;;;;;;4993116;28;20419;-82
2022/11/25 12:52:23;;;;;;;0.50;0.50;;;10.50;99.90;;;;;;5006353;28;20045;-82
2022/11/25 12:55:10;;;;;;;0.43;0.43;;;10.60;99.90;;;;;;5021018;28;20044;-83
2022/11/25 12:57:54;;;;;;;;;;;10.70;99.90;;;;;;5023103;28;20791;-82
2022/11/25 13:00:20;;;;;;;0.40;0.40;;;10.70;99.90;;;;;;4998257;28;20273;-82
2022/11/25 13:03:05;;;;;;;0.43;0.43;;;10.80;99.90;;;;;;5015826;28;20049;-82
2022/11/25 13:05:58;;;;;;;0.55;0.55;;;10.80;99.90;;;;;;5008526;28;20497;-83
2022/11/25 13:08:42;;;;;;;0.35;0.35;;;10.90;99.90;;;;;;5006295;28;20056;-83
2022/11/25 13:11:27;;;;;;;0.52;0.52;;;10.90;99.90;;;;;;5009028;28;20077;-83
2022/11/25 13:14:26;;;;;;;0.40;0.40;;;10.80;99.90;;;;;;5002127;28;20077;-82
2022/11/25 13:16:53;;;;;;;0.40;0.40;;;10.70;99.90;;;;;;4986732;28;20049;-83
2022/11/25 13:19:19;;;;;;;0.73;0.73;;;10.60;99.90;;;;;;5007154;28;20041;-82
2022/11/25 13:22:16;;;;;;;0.50;0.50;;;10.60;99.90;;;;;;5008537;28;20095;-82